sensor_id;sensor_type;location;lat;lon;timestamp;pressure;altitude;pressure_sealevel;temperature;humidity
47897;BME280;39629;51.400;5.494;2022-12-07T00:02:15;101676.97;;;2.63;100.00
47897;BME280;39629;51.400;5.494;2022-12-07T00:07:18;101675.84;;;2.58;100.00
47897;BME280;39629;51.400;5.494;2022-12-07T00:12:20;101676.34;;;2.49;100.00
47897;BME280;39629;51.400;5.494;2022-12-07T00:17:21;101660.56;;;2.44;100.00
47897;BME280;39629;51.400;5.494;2022-12-07T00:22:24;101657.50;;;2.33;100.00
47897;BME280;39629;51.400;5.494;2022-12-07T00:27:27;101660.25;;;2.17;100.00
47897;BME280;39629;51.400;5.494;2022-12-07T00:32:28;101655.25;;;2.02;100.00
47897;BME280;39629;51.400;5.494;2022-12-07T00:37:32;101660.06;;;1.94;100.00
47897;BME280;39629;51.400;5.494;2022-12-07T00:42:33;101654.13;;;1.77;100.00
47897;BME280;39629;51.400;5.494;2022-12-07T00:47:35;101658.31;;;1.74;100.00
47897;BME280;39629;51.400;5.494;2022-12-07T00:52:38;101651.03;;;1.66;100.00
47897;BME280;39629;51.400;5.494;2022-12-07T00:57:39;101645.75;;;1.65;100.00
47897;BME280;39629;51.400;5.494;2022-12-07T01:02:41;101651.22;;;1.51;100.00
47897;BME280;39629;51.400;5.494;2022-12-07T01:07:44;101650.16;;;1.48;100.00
47897;BME280;39629;51.400;5.494;2022-12-07T01:12:47;101652.25;;;1.37;100.00
47897;BME280;39629;51.400;5.494;2022-12-07T01:17:48;101645.88;;;1.48;100.00
47897;BME280;39629;51.400;5.494;2022-12-07T01:22:51;101649.72;;;1.39;100.00
47897;BME280;39629;51.400;5.494;2022-12-07T01:27:53;101649.31;;;1.29;100.00
47897;BME280;39629;51.400;5.494;2022-12-07T01:32:54;101652.72;;;1.28;100.00
47897;BME280;39629;51.400;5.494;2022-12-07T01:37:58;101659.59;;;1.10;100.00
47897;BME280;39629;51.400;5.494;2022-12-07T01:42:59;101656.19;;;1.11;100.00
47897;BME280;39629;51.400;5.494;2022-12-07T01:48:01;101652.84;;;1.13;100.00
47897;BME280;39629;51.400;5.494;2022-12-07T01:53:06;101663.16;;;1.12;100.00
47897;BME280;39629;51.400;5.494;2022-12-07T01:58:11;101647.53;;;1.28;100.00
47897;BME280;39629;51.400;5.494;2022-12-07T02:03:17;101645.94;;;1.50;100.00
47897;BME280;39629;51.400;5.494;2022-12-07T02:08:22;101657.56;;;1.58;100.00
47897;BME280;39629;51.400;5.494;2022-12-07T02:13:26;101651.41;;;1.74;100.00
47897;BME280;39629;51.400;5.494;2022-12-07T02:18:38;101639.59;;;1.81;100.00
47897;BME280;39629;51.400;5.494;2022-12-07T02:24:02;101641.16;;;1.77;100.00
47897;BME280;39629;51.400;5.494;2022-12-07T02:29:18;101637.25;;;1.87;100.00
47897;BME280;39629;51.400;5.494;2022-12-07T02:34:34;101639.19;;;1.91;100.00
47897;BME280;39629;51.400;5.494;2022-12-07T02:39:40;101646.56;;;1.82;100.00
47897;BME280;39629;51.400;5.494;2022-12-07T02:44:46;101634.78;;;1.90;100.00
47897;BME280;39629;51.400;5.494;2022-12-07T02:49:49;101641.38;;;1.82;100.00
47897;BME280;39629;51.400;5.494;2022-12-07T02:54:51;101632.06;;;1.67;100.00
47897;BME280;39629;51.400;5.494;2022-12-07T03:00:01;101635.94;;;1.58;100.00
47897;BME280;39629;51.400;5.494;2022-12-07T03:05:14;101633.19;;;1.55;100.00
47897;BME280;39629;51.400;5.494;2022-12-07T03:10:22;101640.88;;;1.33;100.00
47897;BME280;39629;51.400;5.494;2022-12-07T03:15:33;101642.47;;;1.31;100.00
47897;BME280;39629;51.400;5.494;2022-12-07T03:20:38;101650.47;;;1.18;100.00
47897;BME280;39629;51.400;5.494;2022-12-07T03:25:45;101637.59;;;1.38;100.00
47897;BME280;39629;51.400;5.494;2022-12-07T03:30:53;101641.81;;;1.35;100.00
47897;BME280;39629;51.400;5.494;2022-12-07T03:36:02;101630.91;;;1.25;100.00
47897;BME280;39629;51.400;5.494;2022-12-07T03:41:09;101635.69;;;1.33;100.00
47897;BME280;39629;51.400;5.494;2022-12-07T03:46:19;101623.22;;;1.26;100.00
47897;BME280;39629;51.400;5.494;2022-12-07T03:51:26;101624.91;;;1.26;100.00
47897;BME280;39629;51.400;5.494;2022-12-07T03:56:30;101629.97;;;1.41;100.00
47897;BME280;39629;51.400;5.494;2022-12-07T04:01:33;101643.22;;;1.29;100.00
47897;BME280;39629;51.400;5.494;2022-12-07T04:06:35;101634.22;;;1.40;100.00
47897;BME280;39629;51.400;5.494;2022-12-07T04:11:36;101633.34;;;1.58;100.00
47897;BME280;39629;51.400;5.494;2022-12-07T04:16:39;101633.84;;;1.68;100.00
47897;BME280;39629;51.400;5.494;2022-12-07T04:21:41;101638.84;;;1.83;100.00
47897;BME280;39629;51.400;5.494;2022-12-07T04:26:44;101628.47;;;1.83;100.00
47897;BME280;39629;51.400;5.494;2022-12-07T04:31:47;101624.84;;;1.99;100.00
47897;BME280;39629;51.400;5.494;2022-12-07T04:36:49;101613.84;;;2.05;100.00
47897;BME280;39629;51.400;5.494;2022-12-07T04:41:51;101612.16;;;2.06;100.00
47897;BME280;39629;51.400;5.494;2022-12-07T04:46:54;101613.91;;;2.07;100.00
47897;BME280;39629;51.400;5.494;2022-12-07T04:51:57;101598.06;;;2.00;100.00
47897;BME280;39629;51.400;5.494;2022-12-07T04:56:58;101607.78;;;2.05;100.00
47897;BME280;39629;51.400;5.494;2022-12-07T05:02:02;101605.50;;;2.12;100.00
47897;BME280;39629;51.400;5.494;2022-12-07T05:07:03;101604.75;;;2.15;100.00
47897;BME280;39629;51.400;5.494;2022-12-07T05:12:05;101605.09;;;2.23;100.00
47897;BME280;39629;51.400;5.494;2022-12-07T05:17:08;101607.81;;;2.26;100.00
47897;BME280;39629;51.400;5.494;2022-12-07T05:22:11;101603.03;;;2.35;100.00
47897;BME280;39629;51.400;5.494;2022-12-07T05:27:14;101604.19;;;2.42;100.00
47897;BME280;39629;51.400;5.494;2022-12-07T05:32:17;101602.41;;;2.41;100.00
47897;BME280;39629;51.400;5.494;2022-12-07T05:37:19;101594.78;;;2.45;100.00
47897;BME280;39629;51.400;5.494;2022-12-07T05:42:20;101594.72;;;2.44;100.00
47897;BME280;39629;51.400;5.494;2022-12-07T05:47:23;101592.00;;;2.41;100.00
47897;BME280;39629;51.400;5.494;2022-12-07T05:52:25;101592.28;;;2.27;100.00
47897;BME280;39629;51.400;5.494;2022-12-07T05:57:27;101584.09;;;2.18;100.00
47897;BME280;39629;51.400;5.494;2022-12-07T06:02:30;101587.31;;;2.12;100.00
47897;BME280;39629;51.400;5.494;2022-12-07T06:07:31;101590.22;;;1.99;100.00
47897;BME280;39629;51.400;5.494;2022-12-07T06:12:33;101601.91;;;1.89;100.00
47897;BME280;39629;51.400;5.494;2022-12-07T06:17:36;101596.28;;;1.80;100.00
47897;BME280;39629;51.400;5.494;2022-12-07T06:22:38;101604.31;;;1.66;100.00
47897;BME280;39629;51.400;5.494;2022-12-07T06:27:40;101612.66;;;1.59;100.00
47897;BME280;39629;51.400;5.494;2022-12-07T06:32:43;101610.78;;;1.57;100.00
47897;BME280;39629;51.400;5.494;2022-12-07T06:37:44;101599.03;;;1.45;100.00
47897;BME280;39629;51.400;5.494;2022-12-07T06:42:46;101610.16;;;1.25;100.00
47897;BME280;39629;51.400;5.494;2022-12-07T06:47:49;101605.22;;;1.29;100.00
47897;BME280;39629;51.400;5.494;2022-12-07T06:52:51;101607.22;;;1.17;100.00
47897;BME280;39629;51.400;5.494;2022-12-07T06:57:52;101612.19;;;1.12;100.00
47897;BME280;39629;51.400;5.494;2022-12-07T07:02:55;101610.78;;;1.01;100.00
47897;BME280;39629;51.400;5.494;2022-12-07T07:07:57;101615.97;;;1.19;100.00
47897;BME280;39629;51.400;5.494;2022-12-07T07:12:59;101613.22;;;1.16;100.00
47897;BME280;39629;51.400;5.494;2022-12-07T07:18:02;101608.84;;;1.15;100.00
47897;BME280;39629;51.400;5.494;2022-12-07T07:23:04;101608.84;;;1.15;100.00
47897;BME280;39629;51.400;5.494;2022-12-07T07:28:05;101598.47;;;1.15;100.00
47897;BME280;39629;51.400;5.494;2022-12-07T07:33:09;101613.97;;;1.13;100.00
47897;BME280;39629;51.400;5.494;2022-12-07T07:38:11;101610.03;;;1.22;100.00
47897;BME280;39629;51.400;5.494;2022-12-07T07:43:13;101606.47;;;1.38;100.00
47897;BME280;39629;51.400;5.494;2022-12-07T07:48:16;101615.81;;;1.34;100.00
47897;BME280;39629;51.400;5.494;2022-12-07T07:53:17;101626.31;;;1.37;100.00
47897;BME280;39629;51.400;5.494;2022-12-07T07:58:19;101621.50;;;1.45;100.00
47897;BME280;39629;51.400;5.494;2022-12-07T08:03:22;101630.94;;;1.62;100.00
47897;BME280;39629;51.400;5.494;2022-12-07T08:08:24;101638.22;;;1.69;100.00
47897;BME280;39629;51.400;5.494;2022-12-07T08:13:25;101621.06;;;1.93;100.00
47897;BME280;39629;51.400;5.494;2022-12-07T08:18:29;101622.19;;;1.98;100.00
47897;BME280;39629;51.400;5.494;2022-12-07T08:23:32;101636.09;;;2.00;100.00
47897;BME280;39629;51.400;5.494;2022-12-07T08:28:34;101630.38;;;2.07;100.00
47897;BME280;39629;51.400;5.494;2022-12-07T08:33:37;101642.00;;;2.15;100.00
47897;BME280;39629;51.400;5.494;2022-12-07T08:38:40;101650.25;;;2.26;100.00
47897;BME280;39629;51.400;5.494;2022-12-07T08:43:42;101650.41;;;2.29;100.00
47897;BME280;39629;51.400;5.494;2022-12-07T08:48:48;101650.84;;;2.40;100.00
47897;BME280;39629;51.400;5.494;2022-12-07T08:53:52;101642.03;;;2.56;100.00
47897;BME280;39629;51.400;5.494;2022-12-07T08:58:54;101633.28;;;2.75;100.00
47897;BME280;39629;51.400;5.494;2022-12-07T09:03:57;101627.97;;;2.93;100.00
47897;BME280;39629;51.400;5.494;2022-12-07T09:09:00;101626.34;;;3.18;100.00
47897;BME280;39629;51.400;5.494;2022-12-07T09:14:02;101638.09;;;3.29;100.00
47897;BME280;39629;51.400;5.494;2022-12-07T09:19:05;101635.97;;;3.42;100.00
47897;BME280;39629;51.400;5.494;2022-12-07T09:24:07;101634.41;;;3.47;100.00
47897;BME280;39629;51.400;5.494;2022-12-07T09:29:09;101635.59;;;3.55;100.00
47897;BME280;39629;51.400;5.494;2022-12-07T09:34:12;101625.72;;;3.69;100.00
47897;BME280;39629;51.400;5.494;2022-12-07T09:39:14;101629.38;;;3.74;100.00
47897;BME280;39629;51.400;5.494;2022-12-07T09:44:20;101632.41;;;3.85;100.00
47897;BME280;39629;51.400;5.494;2022-12-07T09:49:28;101634.50;;;3.95;100.00
47897;BME280;39629;51.400;5.494;2022-12-07T09:54:30;101635.22;;;3.91;100.00
47897;BME280;39629;51.400;5.494;2022-12-07T09:59:32;101626.75;;;3.97;100.00
47897;BME280;39629;51.400;5.494;2022-12-07T10:04:37;101631.84;;;3.94;100.00
47897;BME280;39629;51.400;5.494;2022-12-07T10:09:39;101631.91;;;3.95;100.00
47897;BME280;39629;51.400;5.494;2022-12-07T10:14:54;101620.31;;;3.87;100.00
47897;BME280;39629;51.400;5.494;2022-12-07T10:20:17;101615.34;;;3.93;100.00
47897;BME280;39629;51.400;5.494;2022-12-07T10:25:21;101605.75;;;4.16;100.00
47897;BME280;39629;51.400;5.494;2022-12-07T10:30:23;101608.34;;;4.16;100.00
47897;BME280;39629;51.400;5.494;2022-12-07T10:35:27;101594.94;;;4.30;100.00
47897;BME280;39629;51.400;5.494;2022-12-07T10:40:32;101582.38;;;4.43;100.00
47897;BME280;39629;51.400;5.494;2022-12-07T10:45:35;101581.00;;;4.55;100.00
47897;BME280;39629;51.400;5.494;2022-12-07T10:50:56;101574.66;;;4.72;100.00
47897;BME280;39629;51.400;5.494;2022-12-07T11:01:42;101570.25;;;4.71;100.00
47897;BME280;39629;51.400;5.494;2022-12-07T11:06:53;101560.44;;;4.63;100.00
47897;BME280;39629;51.400;5.494;2022-12-07T11:12:01;101559.47;;;4.60;100.00
47897;BME280;39629;51.400;5.494;2022-12-07T11:17:09;101552.69;;;4.66;100.00
47897;BME280;39629;51.400;5.494;2022-12-07T11:22:19;101546.22;;;5.09;100.00
47897;BME280;39629;51.400;5.494;2022-12-07T11:27:29;101527.44;;;5.50;100.00
47897;BME280;39629;51.400;5.494;2022-12-07T11:32:51;101525.56;;;5.76;100.00
47897;BME280;39629;51.400;5.494;2022-12-07T11:37:59;101518.72;;;5.79;100.00
47897;BME280;39629;51.400;5.494;2022-12-07T11:43:05;101515.81;;;6.02;100.00
47897;BME280;39629;51.400;5.494;2022-12-07T11:48:17;101511.34;;;5.98;100.00
47897;BME280;39629;51.400;5.494;2022-12-07T11:53:25;101510.72;;;6.05;100.00
47897;BME280;39629;51.400;5.494;2022-12-07T11:58:38;101495.81;;;6.03;100.00
47897;BME280;39629;51.400;5.494;2022-12-07T12:03:44;101498.78;;;6.17;100.00
47897;BME280;39629;51.400;5.494;2022-12-07T12:08:50;101504.56;;;6.05;100.00
47897;BME280;39629;51.400;5.494;2022-12-07T12:14:11;101505.25;;;5.97;100.00
47897;BME280;39629;51.400;5.494;2022-12-07T12:19:27;101498.28;;;5.98;100.00
47897;BME280;39629;51.400;5.494;2022-12-07T12:24:33;101498.25;;;5.96;100.00
47897;BME280;39629;51.400;5.494;2022-12-07T12:29:38;101490.22;;;5.89;100.00
47897;BME280;39629;51.400;5.494;2022-12-07T12:34:57;101482.91;;;6.09;100.00
47897;BME280;39629;51.400;5.494;2022-12-07T12:40:42;101475.97;;;6.09;100.00
47897;BME280;39629;51.400;5.494;2022-12-07T12:45:44;101457.41;;;5.99;100.00
47897;BME280;39629;51.400;5.494;2022-12-07T12:50:46;101457.72;;;6.11;100.00
47897;BME280;39629;51.400;5.494;2022-12-07T13:01:40;101444.66;;;6.11;100.00
47897;BME280;39629;51.400;5.494;2022-12-07T13:06:42;101447.56;;;6.23;100.00
47897;BME280;39629;51.400;5.494;2022-12-07T13:11:45;101438.84;;;6.24;100.00
47897;BME280;39629;51.400;5.494;2022-12-07T13:16:48;101432.75;;;6.24;100.00
47897;BME280;39629;51.400;5.494;2022-12-07T13:21:50;101423.19;;;6.24;100.00
47897;BME280;39629;51.400;5.494;2022-12-07T13:26:55;101422.25;;;6.21;100.00
47897;BME280;39629;51.400;5.494;2022-12-07T13:31:58;101420.88;;;6.02;100.00
47897;BME280;39629;51.400;5.494;2022-12-07T13:37:01;101407.72;;;5.97;100.00
47897;BME280;39629;51.400;5.494;2022-12-07T13:42:13;101413.03;;;6.00;100.00
47897;BME280;39629;51.400;5.494;2022-12-07T13:47:25;101405.34;;;6.08;100.00
47897;BME280;39629;51.400;5.494;2022-12-07T13:52:31;101404.06;;;5.57;100.00
47897;BME280;39629;51.400;5.494;2022-12-07T13:57:35;101406.25;;;5.73;100.00
47897;BME280;39629;51.400;5.494;2022-12-07T14:02:55;101408.88;;;5.41;100.00
47897;BME280;39629;51.400;5.494;2022-12-07T14:07:58;101398.53;;;5.44;100.00
47897;BME280;39629;51.400;5.494;2022-12-07T14:13:02;101397.81;;;5.50;100.00
47897;BME280;39629;51.400;5.494;2022-12-07T14:18:26;101388.19;;;5.49;100.00
47897;BME280;39629;51.400;5.494;2022-12-07T14:23:28;101369.81;;;5.44;100.00
47897;BME280;39629;51.400;5.494;2022-12-07T14:28:32;101373.94;;;5.36;100.00
47897;BME280;39629;51.400;5.494;2022-12-07T14:33:35;101374.97;;;5.41;100.00
47897;BME280;39629;51.400;5.494;2022-12-07T14:38:38;101365.34;;;5.40;100.00
47897;BME280;39629;51.400;5.494;2022-12-07T14:43:40;101362.53;;;5.33;100.00
47897;BME280;39629;51.400;5.494;2022-12-07T14:48:42;101353.56;;;5.23;100.00
47897;BME280;39629;51.400;5.494;2022-12-07T14:53:48;101362.16;;;5.19;100.00
47897;BME280;39629;51.400;5.494;2022-12-07T14:58:50;101355.00;;;5.11;100.00
47897;BME280;39629;51.400;5.494;2022-12-07T15:03:53;101341.66;;;5.01;100.00
47897;BME280;39629;51.400;5.494;2022-12-07T15:08:54;101340.69;;;4.97;100.00
47897;BME280;39629;51.400;5.494;2022-12-07T15:13:56;101345.63;;;4.88;100.00
47897;BME280;39629;51.400;5.494;2022-12-07T15:19:14;101346.13;;;4.74;100.00
47897;BME280;39629;51.400;5.494;2022-12-07T15:24:16;101348.34;;;4.62;100.00
47897;BME280;39629;51.400;5.494;2022-12-07T15:29:18;101353.31;;;4.53;100.00
47897;BME280;39629;51.400;5.494;2022-12-07T15:34:21;101351.09;;;4.36;100.00
47897;BME280;39629;51.400;5.494;2022-12-07T15:39:24;101345.28;;;4.18;100.00
47897;BME280;39629;51.400;5.494;2022-12-07T15:44:25;101343.22;;;4.07;100.00
47897;BME280;39629;51.400;5.494;2022-12-07T15:49:46;101348.00;;;3.94;100.00
47897;BME280;39629;51.400;5.494;2022-12-07T15:54:48;101352.22;;;3.90;100.00
47897;BME280;39629;51.400;5.494;2022-12-07T15:59:49;101344.22;;;3.84;100.00
47897;BME280;39629;51.400;5.494;2022-12-07T16:04:52;101340.47;;;3.76;100.00
47897;BME280;39629;51.400;5.494;2022-12-07T16:09:54;101340.75;;;3.83;100.00
47897;BME280;39629;51.400;5.494;2022-12-07T16:14:56;101333.72;;;3.81;100.00
47897;BME280;39629;51.400;5.494;2022-12-07T16:19:59;101328.41;;;3.78;100.00
47897;BME280;39629;51.400;5.494;2022-12-07T16:25:00;101325.91;;;3.81;100.00
47897;BME280;39629;51.400;5.494;2022-12-07T16:30:03;101320.59;;;3.78;100.00
47897;BME280;39629;51.400;5.494;2022-12-07T16:35:06;101316.41;;;3.83;100.00
47897;BME280;39629;51.400;5.494;2022-12-07T16:40:10;101311.00;;;3.77;100.00
47897;BME280;39629;51.400;5.494;2022-12-07T16:45:12;101315.16;;;3.71;100.00
47897;BME280;39629;51.400;5.494;2022-12-07T16:50:16;101309.91;;;3.70;100.00
47897;BME280;39629;51.400;5.494;2022-12-07T16:55:17;101304.84;;;3.74;100.00
47897;BME280;39629;51.400;5.494;2022-12-07T17:00:20;101296.03;;;3.69;100.00
47897;BME280;39629;51.400;5.494;2022-12-07T17:05:23;101292.44;;;3.66;100.00
47897;BME280;39629;51.400;5.494;2022-12-07T17:10:27;101297.69;;;3.67;100.00
47897;BME280;39629;51.400;5.494;2022-12-07T17:15:28;101298.56;;;3.68;100.00
47897;BME280;39629;51.400;5.494;2022-12-07T17:20:32;101294.41;;;3.73;100.00
47897;BME280;39629;51.400;5.494;2022-12-07T17:25:34;101296.84;;;3.68;100.00
47897;BME280;39629;51.400;5.494;2022-12-07T17:30:35;101289.88;;;3.67;100.00
47897;BME280;39629;51.400;5.494;2022-12-07T17:35:38;101282.06;;;3.67;100.00
47897;BME280;39629;51.400;5.494;2022-12-07T17:40:40;101284.66;;;3.67;100.00
47897;BME280;39629;51.400;5.494;2022-12-07T17:45:42;101275.94;;;3.65;100.00
47897;BME280;39629;51.400;5.494;2022-12-07T17:50:45;101268.88;;;3.61;100.00
47897;BME280;39629;51.400;5.494;2022-12-07T17:56:04;101256.38;;;3.51;100.00
47897;BME280;39629;51.400;5.494;2022-12-07T18:01:08;101255.00;;;3.35;100.00
47897;BME280;39629;51.400;5.494;2022-12-07T18:06:11;101256.56;;;3.30;100.00
47897;BME280;39629;51.400;5.494;2022-12-07T18:11:13;101244.78;;;3.14;100.00
47897;BME280;39629;51.400;5.494;2022-12-07T18:16:16;101243.81;;;3.12;100.00
47897;BME280;39629;51.400;5.494;2022-12-07T18:21:21;101253.38;;;3.13;100.00
47897;BME280;39629;51.400;5.494;2022-12-07T18:26:25;101248.09;;;3.10;100.00
47897;BME280;39629;51.400;5.494;2022-12-07T18:31:27;101250.97;;;3.19;100.00
47897;BME280;39629;51.400;5.494;2022-12-07T18:36:30;101250.16;;;3.20;100.00
47897;BME280;39629;51.400;5.494;2022-12-07T18:41:32;101236.09;;;3.15;100.00
47897;BME280;39629;51.400;5.494;2022-12-07T18:46:34;101233.59;;;3.18;100.00
47897;BME280;39629;51.400;5.494;2022-12-07T18:51:37;101240.47;;;3.16;100.00
47897;BME280;39629;51.400;5.494;2022-12-07T18:56:39;101219.50;;;3.10;100.00
47897;BME280;39629;51.400;5.494;2022-12-07T19:01:42;101215.88;;;3.06;100.00
47897;BME280;39629;51.400;5.494;2022-12-07T19:06:47;101212.34;;;3.04;100.00
47897;BME280;39629;51.400;5.494;2022-12-07T19:11:49;101222.53;;;2.98;100.00
47897;BME280;39629;51.400;5.494;2022-12-07T19:16:52;101231.13;;;2.95;100.00
47897;BME280;39629;51.400;5.494;2022-12-07T19:21:56;101221.66;;;2.97;100.00
47897;BME280;39629;51.400;5.494;2022-12-07T19:26:58;101210.06;;;2.87;100.00
47897;BME280;39629;51.400;5.494;2022-12-07T19:32:01;101205.84;;;2.91;100.00
47897;BME280;39629;51.400;5.494;2022-12-07T19:37:05;101213.31;;;2.82;100.00
47897;BME280;39629;51.400;5.494;2022-12-07T19:42:07;101208.88;;;2.78;100.00
47897;BME280;39629;51.400;5.494;2022-12-07T19:47:09;101210.41;;;2.72;100.00
47897;BME280;39629;51.400;5.494;2022-12-07T19:52:12;101209.47;;;2.70;100.00
47897;BME280;39629;51.400;5.494;2022-12-07T19:57:14;101205.22;;;2.72;100.00
47897;BME280;39629;51.400;5.494;2022-12-07T20:02:17;101193.91;;;2.72;100.00
47897;BME280;39629;51.400;5.494;2022-12-07T20:07:20;101199.06;;;2.70;100.00
47897;BME280;39629;51.400;5.494;2022-12-07T20:12:21;101197.91;;;2.62;100.00
47897;BME280;39629;51.400;5.494;2022-12-07T20:17:41;101198.03;;;2.65;100.00
47897;BME280;39629;51.400;5.494;2022-12-07T20:22:44;101202.00;;;2.80;100.00
47897;BME280;39629;51.400;5.494;2022-12-07T20:27:45;101188.91;;;2.77;100.00
47897;BME280;39629;51.400;5.494;2022-12-07T20:32:48;101190.81;;;2.82;100.00
47897;BME280;39629;51.400;5.494;2022-12-07T20:37:51;101174.56;;;2.88;100.00
47897;BME280;39629;51.400;5.494;2022-12-07T20:42:52;101174.44;;;2.85;100.00
47897;BME280;39629;51.400;5.494;2022-12-07T20:47:54;101176.19;;;2.86;100.00
47897;BME280;39629;51.400;5.494;2022-12-07T20:52:57;101169.25;;;2.85;100.00
47897;BME280;39629;51.400;5.494;2022-12-07T20:57:59;101170.13;;;2.85;100.00
47897;BME280;39629;51.400;5.494;2022-12-07T21:03:01;101150.09;;;2.83;100.00
47897;BME280;39629;51.400;5.494;2022-12-07T21:08:05;101148.34;;;2.82;100.00
47897;BME280;39629;51.400;5.494;2022-12-07T21:13:06;101147.50;;;2.83;100.00
47897;BME280;39629;51.400;5.494;2022-12-07T21:18:08;101150.88;;;2.80;100.00
47897;BME280;39629;51.400;5.494;2022-12-07T21:23:11;101156.94;;;2.79;100.00
47897;BME280;39629;51.400;5.494;2022-12-07T21:28:13;101151.88;;;2.84;100.00
47897;BME280;39629;51.400;5.494;2022-12-07T21:33:14;101143.13;;;2.82;100.00
47897;BME280;39629;51.400;5.494;2022-12-07T21:38:17;101135.41;;;2.83;100.00
47897;BME280;39629;51.400;5.494;2022-12-07T21:43:19;101127.50;;;2.80;100.00
47897;BME280;39629;51.400;5.494;2022-12-07T21:48:21;101130.03;;;2.79;100.00
47897;BME280;39629;51.400;5.494;2022-12-07T21:53:24;101130.03;;;2.79;100.00
47897;BME280;39629;51.400;5.494;2022-12-07T21:58:26;101133.50;;;2.78;100.00
47897;BME280;39629;51.400;5.494;2022-12-07T22:03:27;101118.88;;;2.81;100.00
47897;BME280;39629;51.400;5.494;2022-12-07T22:08:30;101118.06;;;2.82;100.00
47897;BME280;39629;51.400;5.494;2022-12-07T22:13:32;101112.06;;;2.85;100.00
47897;BME280;39629;51.400;5.494;2022-12-07T22:18:48;101111.16;;;2.84;100.00
47897;BME280;39629;51.400;5.494;2022-12-07T22:23:51;101113.81;;;2.86;100.00
47897;BME280;39629;51.400;5.494;2022-12-07T22:28:52;101105.19;;;2.87;100.00
47897;BME280;39629;51.400;5.494;2022-12-07T22:33:54;101093.00;;;2.86;100.00
47897;BME280;39629;51.400;5.494;2022-12-07T22:38:59;101080.94;;;2.86;100.00
47897;BME280;39629;51.400;5.494;2022-12-07T22:44:01;101074.00;;;2.87;100.00
47897;BME280;39629;51.400;5.494;2022-12-07T22:49:03;101060.97;;;2.85;100.00
47897;BME280;39629;51.400;5.494;2022-12-07T22:54:09;101061.03;;;2.88;100.00
47897;BME280;39629;51.400;5.494;2022-12-07T22:59:12;101053.16;;;2.85;100.00
47897;BME280;39629;51.400;5.494;2022-12-07T23:04:13;101045.31;;;2.84;100.00
47897;BME280;39629;51.400;5.494;2022-12-07T23:09:16;101033.97;;;2.82;100.00
47897;BME280;39629;51.400;5.494;2022-12-07T23:14:21;101033.91;;;2.80;100.00
47897;BME280;39629;51.400;5.494;2022-12-07T23:19:22;101028.63;;;2.77;100.00
47897;BME280;39629;51.400;5.494;2022-12-07T23:24:26;101014.69;;;2.74;100.00
47897;BME280;39629;51.400;5.494;2022-12-07T23:29:28;101009.34;;;2.70;100.00
47897;BME280;39629;51.400;5.494;2022-12-07T23:34:29;100998.88;;;2.67;100.00
47897;BME280;39629;51.400;5.494;2022-12-07T23:39:32;101009.09;;;2.61;100.00
47897;BME280;39629;51.400;5.494;2022-12-07T23:44:34;101003.84;;;2.60;100.00
47897;BME280;39629;51.400;5.494;2022-12-07T23:49:36;101004.41;;;2.51;100.00
47897;BME280;39629;51.400;5.494;2022-12-07T23:54:39;100992.19;;;2.48;100.00
47897;BME280;39629;51.400;5.494;2022-12-07T23:59:40;100989.47;;;2.44;100.00
